Pierre, South Dakota
Current Conditions -  °F | °C
As of 3:53 PM on Saturday 20 Dec 2014 (Local Time) from KPIR Reporting Station
Few Clouds Few Clouds  
Wind Chill: 21°   Ceiling: Unl
Heat Index: 28°   Visibility: 8mi
Dew Point: 24°   Wind: 7mph
Humidity: 85%   Direction: 130°SE
Pressure: 29.89"   Gusts: NA
Location:  44.37°N, 100.35°W
Report Text: KPIR 202153Z AUTO 13006KT 8SM FEW110 M02/M04 A2989 RMK AO2 SLP145 I1002 T10221044
Loading
Personal Weather Stations






























Interactive Weather Map New forecast layout! Learn more

10-Day Weather Forecast

Advertisements
Track Severe Weather on mobile